sensor_id;sensor_type;location;lat;lon;timestamp;pressure;altitude;pressure_sealevel;temperature;humidity
4528;BME280;62320;51.520;6.818;2023-03-16T00:06:51;101460.31;;;3.26;80.12
4528;BME280;62320;51.520;6.818;2023-03-16T00:16:52;101453.16;;;3.38;80.61
4528;BME280;62320;51.520;6.818;2023-03-16T00:26:53;101461.94;;;3.44;79.73
4528;BME280;62320;51.520;6.818;2023-03-16T00:36:55;101457.00;;;3.49;79.85
4528;BME280;62320;51.520;6.818;2023-03-16T00:46:56;101450.78;;;3.65;78.34
4528;BME280;62320;51.520;6.818;2023-03-16T00:56:59;101449.81;;;3.61;78.64
4528;BME280;62320;51.520;6.818;2023-03-16T01:07:02;101433.03;;;3.68;78.67
4528;BME280;62320;51.520;6.818;2023-03-16T01:17:06;101418.69;;;3.73;78.71
4528;BME280;62320;51.520;6.818;2023-03-16T01:27:08;101405.72;;;3.68;78.87
4528;BME280;62320;51.520;6.818;2023-03-16T01:37:10;101387.91;;;3.70;78.95
4528;BME280;62320;51.520;6.818;2023-03-16T01:47:11;101369.47;;;3.78;78.70
4528;BME280;62320;51.520;6.818;2023-03-16T01:57:20;101374.59;;;3.78;77.87
4528;BME280;62320;51.520;6.818;2023-03-16T02:07:23;101350.09;;;3.85;77.85
4528;BME280;62320;51.520;6.818;2023-03-16T02:17:27;101349.47;;;3.90;78.06
4528;BME280;62320;51.520;6.818;2023-03-16T02:37:31;101324.81;;;3.92;77.76
4528;BME280;62320;51.520;6.818;2023-03-16T02:47:41;101305.97;;;3.90;78.30
4528;BME280;62320;51.520;6.818;2023-03-16T02:57:43;101306.81;;;3.91;78.54
4528;BME280;62320;51.520;6.818;2023-03-16T03:07:44;101302.69;;;3.94;78.18
4528;BME280;62320;51.520;6.818;2023-03-16T03:17:46;101281.63;;;4.01;78.95
4528;BME280;62320;51.520;6.818;2023-03-16T03:27:49;101276.59;;;4.04;78.25
4528;BME280;62320;51.520;6.818;2023-03-16T03:37:51;101266.72;;;4.13;78.29
4528;BME280;62320;51.520;6.818;2023-03-16T03:47:52;101259.72;;;4.09;78.15
4528;BME280;62320;51.520;6.818;2023-03-16T03:57:56;101270.13;;;4.14;78.27
4528;BME280;62320;51.520;6.818;2023-03-16T04:07:57;101259.06;;;4.15;78.93
4528;BME280;62320;51.520;6.818;2023-03-16T04:17:59;101250.19;;;4.30;77.92
4528;BME280;62320;51.520;6.818;2023-03-16T04:28:00;101230.34;;;4.23;78.50
4528;BME280;62320;51.520;6.818;2023-03-16T04:38:02;101229.69;;;4.29;78.69
4528;BME280;62320;51.520;6.818;2023-03-16T04:48:04;101225.66;;;4.37;78.62
4528;BME280;62320;51.520;6.818;2023-03-16T04:58:06;101236.91;;;4.41;78.65
4528;BME280;62320;51.520;6.818;2023-03-16T05:08:07;101222.75;;;4.52;77.86
4528;BME280;62320;51.520;6.818;2023-03-16T05:18:09;101214.16;;;4.50;78.13
4528;BME280;62320;51.520;6.818;2023-03-16T05:28:10;101218.47;;;4.52;78.02
4528;BME280;62320;51.520;6.818;2023-03-16T05:38:12;101218.38;;;4.49;78.25
4528;BME280;62320;51.520;6.818;2023-03-16T05:48:15;101214.16;;;4.50;78.13
4528;BME280;62320;51.520;6.818;2023-03-16T05:58:17;101209.72;;;4.46;79.09
4528;BME280;62320;51.520;6.818;2023-03-16T06:08:18;101223.50;;;4.49;79.55
4528;BME280;62320;51.520;6.818;2023-03-16T06:18:20;101237.25;;;4.53;79.52
4528;BME280;62320;51.520;6.818;2023-03-16T06:28:22;101224.84;;;4.65;79.66
4528;BME280;62320;51.520;6.818;2023-03-16T06:38:23;101220.00;;;4.74;79.29
4528;BME280;62320;51.520;6.818;2023-03-16T06:48:25;101238.25;;;4.84;79.63
4528;BME280;62320;51.520;6.818;2023-03-16T06:58:26;101232.63;;;4.96;78.41
4528;BME280;62320;51.520;6.818;2023-03-16T07:08:27;101234.97;;;5.17;77.56
4528;BME280;62320;51.520;6.818;2023-03-16T07:18:29;101247.00;;;5.47;76.60
4528;BME280;62320;51.520;6.818;2023-03-16T07:28:31;101244.63;;;5.55;75.70
4528;BME280;62320;51.520;6.818;2023-03-16T07:38:33;101254.50;;;5.72;74.49
4528;BME280;62320;51.520;6.818;2023-03-16T07:48:35;101248.25;;;5.93;75.12
4528;BME280;62320;51.520;6.818;2023-03-16T07:58:37;101255.50;;;6.09;74.59
4528;BME280;62320;51.520;6.818;2023-03-16T08:08:39;101247.13;;;6.16;74.10
4528;BME280;62320;51.520;6.818;2023-03-16T08:18:40;101243.88;;;6.21;73.36
4528;BME280;62320;51.520;6.818;2023-03-16T08:28:43;101240.34;;;6.18;73.59
4528;BME280;62320;51.520;6.818;2023-03-16T08:38:48;101242.22;;;6.25;73.35
4528;BME280;62320;51.520;6.818;2023-03-16T08:49:07;101248.25;;;6.25;73.75
4528;BME280;62320;51.520;6.818;2023-03-16T08:59:09;101247.59;;;6.34;74.04
4528;BME280;62320;51.520;6.818;2023-03-16T09:09:29;101253.72;;;6.39;73.44
4528;BME280;62320;51.520;6.818;2023-03-16T09:19:31;101248.16;;;6.57;74.83
4528;BME280;62320;51.520;6.818;2023-03-16T09:29:51;101239.53;;;6.90;74.51
4528;BME280;62320;51.520;6.818;2023-03-16T09:39:56;101234.03;;;7.14;75.22
4528;BME280;62320;51.520;6.818;2023-03-16T09:50:33;101216.56;;;7.38;75.26
4528;BME280;62320;51.520;6.818;2023-03-16T10:11:17;101197.59;;;7.79;73.53
4528;BME280;62320;51.520;6.818;2023-03-16T10:21:24;101174.00;;;8.05;72.21
4528;BME280;62320;51.520;6.818;2023-03-16T10:31:25;101181.97;;;8.18;73.35
4528;BME280;62320;51.520;6.818;2023-03-16T10:41:37;101161.66;;;8.33;70.45
4528;BME280;62320;51.520;6.818;2023-03-16T10:51:38;101136.16;;;8.51;70.42
4528;BME280;62320;51.520;6.818;2023-03-16T11:01:43;101139.00;;;8.73;70.25
4528;BME280;62320;51.520;6.818;2023-03-16T11:11:46;101133.97;;;8.80;70.46
4528;BME280;62320;51.520;6.818;2023-03-16T11:21:56;101122.53;;;9.30;67.53
4528;BME280;62320;51.520;6.818;2023-03-16T11:32:03;101092.66;;;9.54;66.51
4528;BME280;62320;51.520;6.818;2023-03-16T11:42:18;101076.56;;;9.86;65.10
4528;BME280;62320;51.520;6.818;2023-03-16T12:12:56;101019.25;;;10.37;61.77
4528;BME280;62320;51.520;6.818;2023-03-16T12:23:08;101015.81;;;10.47;61.67
4528;BME280;62320;51.520;6.818;2023-03-16T12:33:26;100997.78;;;10.64;60.01
4528;BME280;62320;51.520;6.818;2023-03-16T13:04:05;100947.00;;;10.98;58.46
4528;BME280;62320;51.520;6.818;2023-03-16T13:14:15;100939.25;;;11.14;59.76
4528;BME280;62320;51.520;6.818;2023-03-16T13:34:25;100907.31;;;11.33;61.57
4528;BME280;62320;51.520;6.818;2023-03-16T13:44:28;100905.59;;;11.43;59.27
4528;BME280;62320;51.520;6.818;2023-03-16T13:54:30;100877.97;;;11.48;59.93
4528;BME280;62320;51.520;6.818;2023-03-16T14:04:32;100853.75;;;11.61;58.21
4528;BME280;62320;51.520;6.818;2023-03-16T14:14:39;100844.25;;;11.68;59.83
4528;BME280;62320;51.520;6.818;2023-03-16T14:24:42;100813.16;;;11.83;59.57
4528;BME280;62320;51.520;6.818;2023-03-16T14:34:48;100803.56;;;11.95;58.80
4528;BME280;62320;51.520;6.818;2023-03-16T14:44:50;100794.06;;;11.99;57.57
4528;BME280;62320;51.520;6.818;2023-03-16T14:54:52;100774.22;;;11.96;58.33
4528;BME280;62320;51.520;6.818;2023-03-16T15:04:56;100765.50;;;12.09;56.38
4528;BME280;62320;51.520;6.818;2023-03-16T15:14:59;100756.88;;;12.07;56.27
4528;BME280;62320;51.520;6.818;2023-03-16T15:25:39;100749.94;;;12.08;56.65
4528;BME280;62320;51.520;6.818;2023-03-16T15:35:42;100742.16;;;12.09;55.12
4528;BME280;62320;51.520;6.818;2023-03-16T15:45:45;100718.88;;;12.02;54.73
4528;BME280;62320;51.520;6.818;2023-03-16T15:55:50;100715.47;;;11.97;54.95
4528;BME280;62320;51.520;6.818;2023-03-16T16:05:54;100694.81;;;11.88;55.64
4528;BME280;62320;51.520;6.818;2023-03-16T16:15:56;100678.44;;;11.77;60.11
4528;BME280;62320;51.520;6.818;2023-03-16T16:26:00;100692.22;;;11.82;56.06
4528;BME280;62320;51.520;6.818;2023-03-16T16:36:06;100694.91;;;11.71;57.84
4528;BME280;62320;51.520;6.818;2023-03-16T16:46:16;100678.53;;;11.57;56.14
4528;BME280;62320;51.520;6.818;2023-03-16T16:56:25;100680.34;;;11.38;57.51
4528;BME280;62320;51.520;6.818;2023-03-16T17:06:28;100692.53;;;11.18;57.74
4528;BME280;62320;51.520;6.818;2023-03-16T17:16:33;100683.94;;;11.07;58.19
4528;BME280;62320;51.520;6.818;2023-03-16T17:26:39;100675.34;;;10.93;59.34
4528;BME280;62320;51.520;6.818;2023-03-16T17:36:42;100681.44;;;10.80;59.56
4528;BME280;62320;51.520;6.818;2023-03-16T17:46:44;100690.09;;;10.58;60.72
4528;BME280;62320;51.520;6.818;2023-03-16T17:56:48;100690.97;;;10.48;61.09
4528;BME280;62320;51.520;6.818;2023-03-16T18:06:50;100674.59;;;10.43;61.81
4528;BME280;62320;51.520;6.818;2023-03-16T18:16:52;100690.97;;;10.30;63.20
4528;BME280;62320;51.520;6.818;2023-03-16T18:26:54;100686.66;;;10.27;62.27
4528;BME280;62320;51.520;6.818;2023-03-16T18:36:56;100687.53;;;10.13;63.25
4528;BME280;62320;51.520;6.818;2023-03-16T18:47:01;100688.34;;;10.08;63.34
4528;BME280;62320;51.520;6.818;2023-03-16T18:57:13;100683.19;;;10.02;63.38
4528;BME280;62320;51.520;6.818;2023-03-16T19:07:24;100690.06;;;9.96;63.90
4528;BME280;62320;51.520;6.818;2023-03-16T19:17:28;100685.75;;;9.89;63.90
4528;BME280;62320;51.520;6.818;2023-03-16T19:27:33;100682.28;;;9.79;64.04
4528;BME280;62320;51.520;6.818;2023-03-16T19:37:38;100687.44;;;9.73;64.65
4528;BME280;62320;51.520;6.818;2023-03-16T19:47:40;100677.97;;;9.71;64.02
4528;BME280;62320;51.520;6.818;2023-03-16T19:57:42;100663.28;;;9.55;63.90
4528;BME280;62320;51.520;6.818;2023-03-16T20:07:45;100645.25;;;9.53;64.04
4528;BME280;62320;51.520;6.818;2023-03-16T20:17:48;100634.88;;;9.46;64.78
4528;BME280;62320;51.520;6.818;2023-03-16T20:27:53;100620.25;;;9.37;64.74
4528;BME280;62320;51.520;6.818;2023-03-16T20:37:56;100606.50;;;9.35;65.22
4528;BME280;62320;51.520;6.818;2023-03-16T20:47:58;100597.88;;;9.36;65.24
4528;BME280;62320;51.520;6.818;2023-03-16T20:57:59;100578.94;;;9.34;65.00
4528;BME280;62320;51.520;6.818;2023-03-16T21:08:01;100557.44;;;9.26;65.12
4528;BME280;62320;51.520;6.818;2023-03-16T21:18:04;100545.41;;;9.22;65.53
4528;BME280;62320;51.520;6.818;2023-03-16T21:28:09;100543.66;;;9.18;65.28
4528;BME280;62320;51.520;6.818;2023-03-16T21:38:15;100532.47;;;9.16;65.56
4528;BME280;62320;51.520;6.818;2023-03-16T21:48:26;100532.50;;;9.17;64.73
4528;BME280;62320;51.520;6.818;2023-03-16T21:58:30;100511.84;;;9.11;65.22
4528;BME280;62320;51.520;6.818;2023-03-16T22:08:32;100498.94;;;9.05;65.20
4528;BME280;62320;51.520;6.818;2023-03-16T22:18:35;100498.06;;;9.06;64.87
4528;BME280;62320;51.520;6.818;2023-03-16T22:28:37;100495.50;;;9.05;65.23
4528;BME280;62320;51.520;6.818;2023-03-16T22:38:40;100486.06;;;9.14;64.08
4528;BME280;62320;51.520;6.818;2023-03-16T22:48:42;100486.91;;;9.03;65.83
4528;BME280;62320;51.520;6.818;2023-03-16T22:58:47;100487.75;;;9.03;65.83
4528;BME280;62320;51.520;6.818;2023-03-16T23:08:51;100471.44;;;9.10;64.66
4528;BME280;62320;51.520;6.818;2023-03-16T23:18:54;100463.69;;;9.21;64.26
4528;BME280;62320;51.520;6.818;2023-03-16T23:28:56;100464.56;;;9.17;64.97
4528;BME280;62320;51.520;6.818;2023-03-16T23:38:58;100449.09;;;9.23;63.28
4528;BME280;62320;51.520;6.818;2023-03-16T23:49:03;100474.88;;;9.21;64.32
4528;BME280;62320;51.520;6.818;2023-03-16T23:59:05;100506.69;;;9.25;64.52
